Terminal Aerodrome Forecast
Issued by NWS Caribou, ME

Home | Current Version | Previous Version | Text Only | Print | Product List | Glossary On
Versions: 1 2 3 4 5 6 7 8 9 10 11 12 13 14 15
000
FTUS41 KCAR 280520
TAFBGR
TAF
KBGR 280520Z 2806/2906 15005KT P6SM BKN090
     FM280900 VRB03KT 2SM BR SCT003
     FM281000 VRB03KT P6SM SCT003
     FM281800 26006KT P6SM VCSH BKN070
     FM282100 26006KT P6SM BKN200=

USA.gov is the U.S. government's official web portal to all federal, state and local government web resources and services.